createdAt,value
2019-02-12T00:01:54.926Z,95933.14
2019-02-12T00:04:23.591Z,95945.19
2019-02-12T00:06:52.174Z,95937.72
2019-02-12T00:09:20.799Z,95948.05
2019-02-12T00:11:49.400Z,95943.81
2019-02-12T00:14:18.012Z,95939.50
2019-02-12T00:16:46.579Z,95942.30
2019-02-12T00:19:15.176Z,95949.96
2019-02-12T00:21:43.834Z,95950.36
2019-02-12T00:24:12.468Z,95951.19
2019-02-12T00:26:41.050Z,95953.30
2019-02-12T00:29:09.761Z,95958.25
2019-02-12T00:31:38.348Z,95946.87
2019-02-12T00:34:06.964Z,95947.75
2019-02-12T00:36:35.557Z,95949.27
2019-02-12T00:39:05.032Z,95939.50
2019-02-12T00:41:33.622Z,95950.11
2019-02-12T00:44:02.233Z,95948.50
2019-02-12T00:46:30.829Z,95951.09
2019-02-12T00:48:59.667Z,95953.18
2019-02-12T00:51:28.245Z,95955.07
2019-02-12T00:53:56.862Z,95947.78
2019-02-12T00:56:25.447Z,95960.55
2019-02-12T00:58:54.057Z,95963.75
2019-02-12T01:01:22.636Z,95978.17
2019-02-12T01:03:51.279Z,95973.25
2019-02-12T01:06:19.833Z,95976.37
2019-02-12T01:08:48.469Z,95988.66
2019-02-12T01:11:17.072Z,95981.00
2019-02-12T01:13:45.669Z,95967.69
2019-02-12T01:16:14.365Z,95966.25
2019-02-12T01:18:42.966Z,95963.05
2019-02-12T01:21:11.558Z,95969.95
2019-02-12T01:23:40.157Z,95961.84
2019-02-12T01:26:08.758Z,95965.73
2019-02-12T01:28:37.347Z,95970.76
2019-02-12T01:31:05.961Z,95980.77
2019-02-12T01:33:34.544Z,95976.46
2019-02-12T01:36:03.155Z,95977.17
2019-02-12T01:38:31.742Z,95981.84
2019-02-12T01:41:00.352Z,95980.30
2019-02-12T01:43:28.933Z,95978.39
2019-02-12T01:45:57.532Z,95979.46
2019-02-12T01:48:26.117Z,95976.93
2019-02-12T01:50:54.713Z,95980.21
2019-02-12T01:53:23.354Z,95984.55
2019-02-12T01:55:51.906Z,95986.64
2019-02-12T01:58:20.487Z,95979.75
2019-02-12T02:00:49.087Z,95990.92
2019-02-12T02:03:17.668Z,95984.04
2019-02-12T02:05:46.279Z,95994.70
2019-02-12T02:08:14.890Z,95985.19
2019-02-12T02:10:43.508Z,95985.17
2019-02-12T02:13:12.138Z,95994.66
2019-02-12T02:15:40.797Z,95992.55
2019-02-12T02:18:09.413Z,95993.39
2019-02-12T02:20:37.993Z,96000.84
2019-02-12T02:23:06.665Z,95999.09
2019-02-12T02:25:35.245Z,96008.44
2019-02-12T02:28:03.845Z,95998.56
2019-02-12T02:30:32.489Z,95996.75
2019-02-12T02:33:01.071Z,96002.88
2019-02-12T02:35:29.653Z,95999.43
2019-02-12T02:37:58.256Z,96008.77
2019-02-12T02:40:26.848Z,96019.33
2019-02-12T02:42:55.442Z,96033.39
2019-02-12T02:45:24.025Z,96027.59
2019-02-12T02:47:52.631Z,96033.17
2019-02-12T02:50:21.254Z,96029.98
2019-02-12T02:52:49.832Z,96033.39
2019-02-12T02:55:18.445Z,96038.39
2019-02-12T02:57:47.035Z,96035.39
2019-02-12T03:00:15.834Z,96036.86
2019-02-12T03:02:44.425Z,96044.44
2019-02-12T03:05:13.048Z,96041.75
2019-02-12T03:07:41.729Z,96040.09
2019-02-12T03:10:10.538Z,96042.86
2019-02-12T03:12:39.147Z,96040.14
2019-02-12T03:15:08.674Z,96038.40
2019-02-12T03:17:37.272Z,96045.23
2019-02-12T03:20:06.614Z,96045.22
2019-02-12T03:22:35.209Z,96038.99
2019-02-12T03:25:03.957Z,96032.98
2019-02-12T03:27:32.547Z,96034.76
2019-02-12T03:30:01.130Z,96032.38
2019-02-12T03:32:29.772Z,96038.06
2019-02-12T03:34:58.363Z,96037.63
2019-02-12T03:37:26.962Z,96034.36
2019-02-12T03:39:55.545Z,96037.19
2019-02-12T03:42:24.136Z,96033.39
2019-02-12T03:44:52.958Z,96023.41
2019-02-12T03:47:21.639Z,96022.37
2019-02-12T03:49:50.238Z,96024.69
2019-02-12T03:52:19.513Z,96031.73
2019-02-12T03:54:48.623Z,96031.00
2019-02-12T03:57:17.229Z,96033.77
2019-02-12T03:59:45.885Z,96041.53
2019-02-12T04:02:14.562Z,96029.70
2019-02-12T04:04:43.234Z,96031.97
2019-02-12T04:07:11.840Z,96042.29
2019-02-12T04:09:40.445Z,96041.01
2019-02-12T04:12:09.124Z,96050.83
2019-02-12T04:14:37.992Z,96056.09
2019-02-12T04:17:06.612Z,96043.23
2019-02-12T04:19:35.194Z,96045.83
2019-02-12T04:22:03.794Z,96045.00
2019-02-12T04:24:32.403Z,96048.95
2019-02-12T04:27:00.999Z,96050.44
2019-02-12T04:29:29.616Z,96042.31
2019-02-12T04:31:58.300Z,96039.66
2019-02-12T04:34:26.888Z,96043.61
2019-02-12T04:36:55.463Z,96041.55
2019-02-12T04:39:24.080Z,96047.43
2019-02-12T04:41:52.682Z,96045.13
2019-02-12T04:44:21.271Z,96049.55
2019-02-12T04:46:49.855Z,96057.47
2019-02-12T04:49:19.765Z,96053.78
2019-02-12T04:51:48.335Z,96064.12
2019-02-12T04:54:16.954Z,96067.52
2019-02-12T04:56:45.625Z,96081.71
2019-02-12T04:59:14.251Z,96072.45
2019-02-12T05:01:42.888Z,96069.93
2019-02-12T05:04:11.524Z,96071.70
2019-02-12T05:06:40.386Z,96075.39
2019-02-12T05:09:16.927Z,96071.22
2019-02-12T05:11:54.582Z,96072.08
2019-02-12T05:14:23.303Z,96065.98
2019-02-12T05:16:51.902Z,96057.86
2019-02-12T05:19:20.513Z,96054.70
2019-02-12T05:21:49.102Z,96063.08
2019-02-12T05:24:17.961Z,96058.20
2019-02-12T05:26:46.537Z,96047.71
2019-02-12T05:29:15.137Z,96053.61
2019-02-12T05:31:43.717Z,96059.72
2019-02-12T05:34:13.861Z,96061.83
2019-02-12T05:36:42.437Z,96063.36
2019-02-12T05:39:11.035Z,96054.79
2019-02-12T05:41:41.513Z,96063.98
2019-02-12T05:44:10.074Z,96067.73
2019-02-12T05:46:38.651Z,96072.75
2019-02-12T05:49:07.246Z,96067.43
2019-02-12T05:51:35.863Z,96078.47
2019-02-12T05:54:04.457Z,96071.73
2019-02-12T05:56:33.094Z,96075.43
2019-02-12T05:59:01.707Z,96076.52
2019-02-12T06:01:30.301Z,96073.55
2019-02-12T06:03:58.907Z,96068.55
2019-02-12T06:06:27.509Z,96080.23
2019-02-12T06:08:56.094Z,96083.19
2019-02-12T06:11:24.715Z,96083.10
2019-02-12T06:13:53.305Z,96097.56
2019-02-12T06:16:21.985Z,96090.30
2019-02-12T06:18:50.576Z,96096.06
2019-02-12T06:21:19.196Z,96100.66
2019-02-12T06:23:47.777Z,96098.80
2019-02-12T06:26:16.394Z,96097.20
2019-02-12T06:28:44.995Z,96099.12
2019-02-12T06:31:13.622Z,96098.41
2019-02-12T06:33:42.271Z,96108.00
2019-02-12T06:36:10.894Z,96104.30
2019-02-12T06:38:39.491Z,96126.33
2019-02-12T06:41:08.113Z,96122.84
2019-02-12T06:43:36.758Z,96117.16
2019-02-12T06:46:05.358Z,96128.63
2019-02-12T06:48:33.956Z,96134.80
2019-02-12T06:51:02.578Z,96144.00
2019-02-12T06:53:31.199Z,96142.47
2019-02-12T06:55:59.890Z,96144.67
2019-02-12T06:58:28.519Z,96148.23
2019-02-12T07:00:57.113Z,96149.89
2019-02-12T07:03:36.229Z,96150.37
2019-02-12T07:06:08.656Z,96149.97
2019-02-12T07:09:05.438Z,96155.05
2019-02-12T07:12:15.088Z,96150.37
2019-02-12T07:14:57.300Z,96155.77
2019-02-12T07:17:53.518Z,96149.39
2019-02-12T07:20:33.646Z,96148.59
2019-02-12T07:23:33.783Z,96162.11
2019-02-12T07:26:42.732Z,96165.58
2019-02-12T07:29:48.661Z,96168.57
2019-02-12T07:33:13.287Z,96171.58
2019-02-12T07:36:08.653Z,96177.39
2019-02-12T07:39:07.865Z,96191.23
2019-02-12T07:41:54.237Z,96187.95
2019-02-12T07:45:08.912Z,96191.30
2019-02-12T07:48:09.238Z,96178.74
2019-02-12T07:50:51.116Z,96191.68
2019-02-12T07:53:49.504Z,96198.37
2019-02-12T07:56:42.200Z,96203.03
2019-02-12T07:59:32.456Z,96211.66
2019-02-12T08:02:47.185Z,96215.93
2019-02-12T08:05:46.034Z,96209.38
2019-02-12T08:09:20.189Z,96217.75
2019-02-12T08:12:32.884Z,96219.87
2019-02-12T08:15:35.933Z,96225.08
2019-02-12T08:18:23.612Z,96225.30
2019-02-12T08:21:36.900Z,96242.30
2019-02-12T08:24:49.096Z,96247.16
2019-02-12T08:27:42.673Z,96240.19
2019-02-12T08:30:45.348Z,96246.14
2019-02-12T08:33:45.026Z,96247.81
2019-02-12T08:36:26.094Z,96251.53
2019-02-12T08:39:22.426Z,96257.91
2019-02-12T08:42:13.801Z,96262.81
2019-02-12T08:45:03.918Z,96255.89
2019-02-12T08:47:57.380Z,96271.89
2019-02-12T08:50:46.160Z,96266.17
2019-02-12T08:54:08.106Z,96271.15
2019-02-12T08:57:21.400Z,96268.44
2019-02-12T09:00:26.999Z,96272.77
2019-02-12T09:03:39.769Z,96277.23
2019-02-12T09:06:35.747Z,96281.71
2019-02-12T09:09:29.490Z,96293.30
2019-02-12T09:12:28.875Z,96287.16
2019-02-12T09:15:45.474Z,96288.52
2019-02-12T09:18:40.628Z,96291.41
2019-02-12T09:21:53.036Z,96295.27
2019-02-12T09:24:28.640Z,96298.66
2019-02-12T09:27:26.562Z,96284.45
2019-02-12T09:30:17.034Z,96298.67
2019-02-12T09:33:23.004Z,96296.53
2019-02-12T09:36:17.436Z,96300.42
2019-02-12T09:39:28.803Z,96307.02
2019-02-12T09:42:28.209Z,96305.34
2019-02-12T09:45:28.597Z,96314.91
2019-02-12T09:48:10.721Z,96313.66
2019-02-12T09:51:07.570Z,96319.77
2019-02-12T09:54:23.996Z,96321.12
2019-02-12T09:57:11.558Z,96327.05
2019-02-12T09:59:59.719Z,96328.97
2019-02-12T10:03:03.975Z,96333.88
2019-02-12T10:06:21.535Z,96339.92
2019-02-12T10:09:10.182Z,96338.39
2019-02-12T10:12:14.760Z,96337.68
2019-02-12T10:15:21.494Z,96351.38
2019-02-12T10:18:33.090Z,96351.58
2019-02-12T10:21:44.445Z,96347.58
2019-02-12T10:24:46.874Z,96340.85
2019-02-12T10:27:45.388Z,96345.01
2019-02-12T10:30:27.718Z,96345.61
2019-02-12T10:32:56.318Z,96350.01
2019-02-12T10:35:24.909Z,96356.20
2019-02-12T10:37:53.585Z,96359.20
2019-02-12T10:40:22.271Z,96359.87
2019-02-12T10:42:50.885Z,96359.20
2019-02-12T10:45:19.461Z,96354.45
2019-02-12T10:47:48.055Z,96364.09
2019-02-12T10:50:16.631Z,96362.52
2019-02-12T10:52:45.216Z,96364.73
2019-02-12T10:55:13.828Z,96362.81
2019-02-12T10:57:42.412Z,96361.08
2019-02-12T11:00:12.660Z,96356.72
2019-02-12T11:02:41.250Z,96363.30
2019-02-12T11:05:10.099Z,96364.73
2019-02-12T11:07:38.678Z,96365.59
2019-02-12T11:10:08.108Z,96373.94
2019-02-12T11:12:36.770Z,96373.00
2019-02-12T11:15:05.730Z,96371.41
2019-02-12T11:17:34.332Z,96370.36
2019-02-12T11:20:02.953Z,96363.96
2019-02-12T11:22:31.525Z,96365.72
2019-02-12T11:25:00.256Z,96371.95
2019-02-12T11:27:28.834Z,96365.42
2019-02-12T11:29:57.439Z,96367.63
2019-02-12T11:32:26.012Z,96372.91
2019-02-12T11:34:54.630Z,96365.22
2019-02-12T11:37:23.183Z,96364.94
2019-02-12T11:39:51.772Z,96364.80
2019-02-12T11:42:20.355Z,96372.80
2019-02-12T11:44:48.973Z,96364.05
2019-02-12T11:47:17.548Z,96370.16
2019-02-12T11:49:46.153Z,96364.46
2019-02-12T11:52:14.746Z,96367.10
2019-02-12T11:54:43.910Z,96358.44
2019-02-12T11:57:12.770Z,96347.94
2019-02-12T11:59:41.379Z,96353.09
2019-02-12T12:02:09.981Z,96353.83
2019-02-12T12:04:38.561Z,96360.94
2019-02-12T12:07:07.155Z,96361.52
2019-02-12T12:09:35.749Z,96362.56
2019-02-12T12:12:04.435Z,96364.52
2019-02-12T12:14:33.108Z,96360.23
2019-02-12T12:17:01.733Z,96359.02
2019-02-12T12:19:30.339Z,96364.09
2019-02-12T12:21:58.977Z,96357.37
2019-02-12T12:24:27.562Z,96360.81
2019-02-12T12:26:56.171Z,96358.02
2019-02-12T12:29:25.095Z,96355.67
2019-02-12T12:31:53.775Z,96357.42
2019-02-12T12:34:22.362Z,96361.79
2019-02-12T12:36:51.017Z,96362.52
2019-02-12T12:39:19.749Z,96364.83
2019-02-12T12:41:48.361Z,96361.55
2019-02-12T12:44:16.997Z,96358.02
2019-02-12T12:46:45.633Z,96357.66
2019-02-12T12:49:14.305Z,96364.55
2019-02-12T12:51:42.973Z,96365.05
2019-02-12T12:54:11.684Z,96364.37
2019-02-12T12:56:40.321Z,96363.88
2019-02-12T12:59:09.167Z,96363.38
2019-02-12T13:01:37.769Z,96370.30
2019-02-12T13:04:06.384Z,96375.77
2019-02-12T13:06:35.025Z,96374.53
2019-02-12T13:09:05.398Z,96371.50
2019-02-12T13:11:34.162Z,96364.12
2019-02-12T13:14:02.917Z,96369.42
2019-02-12T13:16:31.496Z,96372.28
2019-02-12T13:19:00.127Z,96366.10
2019-02-12T13:21:28.753Z,96374.72
2019-02-12T13:23:58.528Z,96374.63
2019-02-12T13:26:27.480Z,96381.72
2019-02-12T13:28:56.098Z,96377.92
2019-02-12T13:31:24.830Z,96373.08
2019-02-12T13:33:53.436Z,96385.20
2019-02-12T13:36:22.196Z,96379.48
2019-02-12T13:38:50.821Z,96387.82
2019-02-12T13:41:19.603Z,96381.89
2019-02-12T13:43:48.257Z,96378.80
2019-02-12T13:46:17.359Z,96378.47
2019-02-12T13:48:46.077Z,96383.08
2019-02-12T13:51:14.698Z,96384.48
2019-02-12T13:53:43.335Z,96388.30
2019-02-12T13:56:12.243Z,96386.69
2019-02-12T13:58:40.792Z,96390.88
2019-02-12T14:01:09.473Z,96389.94
2019-02-12T14:03:39.873Z,96392.23
2019-02-12T14:06:08.531Z,96387.51
2019-02-12T14:08:37.267Z,96395.70
2019-02-12T14:11:05.911Z,96388.99
2019-02-12T14:13:34.602Z,96392.23
2019-02-12T14:16:03.775Z,96380.91
2019-02-12T14:18:32.595Z,96394.91
2019-02-12T14:21:01.210Z,96399.36
2019-02-12T14:23:30.132Z,96395.34
2019-02-12T14:25:58.902Z,96397.93
2019-02-12T14:28:28.167Z,96397.53
2019-02-12T14:30:56.970Z,96401.09
2019-02-12T14:33:25.631Z,96395.30
2019-02-12T14:35:54.637Z,96404.81
2019-02-12T14:38:24.046Z,96396.33
2019-02-12T14:40:52.763Z,96408.36
2019-02-12T14:43:25.706Z,96408.63
2019-02-12T14:45:54.943Z,96408.05
2019-02-12T14:48:23.999Z,96412.03
2019-02-12T14:50:53.177Z,96408.86
2019-02-12T14:53:21.958Z,96404.61
2019-02-12T14:55:50.600Z,96402.59
2019-02-12T14:58:19.688Z,96402.17
2019-02-12T15:00:48.437Z,96403.83
2019-02-12T15:03:19.359Z,96396.82
2019-02-12T15:05:47.882Z,96402.05
2019-02-12T15:08:17.183Z,96406.30
2019-02-12T15:10:45.784Z,96408.20
2019-02-12T15:13:14.537Z,96407.30
2019-02-12T15:15:44.657Z,96409.91
2019-02-12T15:18:13.273Z,96406.15
2019-02-12T15:20:41.953Z,96410.14
2019-02-12T15:23:10.532Z,96412.88
2019-02-12T15:25:42.035Z,96414.97
2019-02-12T15:28:09.672Z,96418.37
2019-02-12T15:30:38.253Z,96416.93
2019-02-12T15:33:06.865Z,96421.22
2019-02-12T15:35:35.465Z,96417.77
2019-02-12T15:38:04.355Z,96422.26
2019-02-12T15:40:32.927Z,96419.25
2019-02-12T15:43:01.514Z,96418.05
2019-02-12T15:45:30.118Z,96421.37
2019-02-12T15:47:58.716Z,96423.12
2019-02-12T15:50:27.315Z,96439.39
2019-02-12T15:52:55.940Z,96430.45
2019-02-12T15:55:24.530Z,96434.02
2019-02-12T15:57:53.284Z,96441.34
2019-02-12T16:00:21.878Z,96444.41
2019-02-12T16:02:50.482Z,96438.53
2019-02-12T16:05:19.068Z,96432.89
2019-02-12T16:07:47.877Z,96436.48
2019-02-12T16:10:17.784Z,96428.53
2019-02-12T16:12:48.934Z,96425.77
2019-02-12T16:15:21.151Z,96428.24
2019-02-12T16:17:48.044Z,96424.36
2019-02-12T16:20:16.625Z,96423.78
2019-02-12T16:22:45.207Z,96434.98
2019-02-12T16:25:15.377Z,96439.36
2019-02-12T16:27:44.169Z,96439.99
2019-02-12T16:30:14.819Z,96443.52
2019-02-12T16:32:43.425Z,96447.13
2019-02-12T16:35:13.214Z,96450.81
2019-02-12T16:37:41.826Z,96447.98
2019-02-12T16:40:11.325Z,96451.79
2019-02-12T16:42:39.987Z,96454.77
2019-02-12T16:45:11.667Z,96453.95
2019-02-12T16:47:40.270Z,96449.27
2019-02-12T16:50:08.956Z,96451.97
2019-02-12T16:52:37.553Z,96460.54
2019-02-12T16:55:07.032Z,96461.16
2019-02-12T16:57:36.053Z,96464.13
2019-02-12T17:00:07.572Z,96462.34
2019-02-12T17:02:36.493Z,96464.87
2019-02-12T17:05:06.121Z,96470.41
2019-02-12T17:07:34.935Z,96470.71
2019-02-12T17:10:04.082Z,96472.87
2019-02-12T17:12:32.996Z,96474.91
2019-02-12T17:15:01.697Z,96485.12
2019-02-12T17:17:30.483Z,96493.88
2019-02-12T17:19:59.190Z,96498.74
2019-02-12T17:22:27.930Z,96506.90
2019-02-12T17:24:56.827Z,96503.80
2019-02-12T17:27:25.623Z,96501.24
2019-02-12T17:29:54.181Z,96502.15
2019-02-12T17:32:23.117Z,96512.14
2019-02-12T17:34:51.733Z,96510.73
2019-02-12T17:37:20.385Z,96511.55
2019-02-12T17:39:48.996Z,96511.89
2019-02-12T17:42:17.614Z,96516.09
2019-02-12T17:44:46.215Z,96517.19
2019-02-12T17:47:14.872Z,96526.33
2019-02-12T17:49:43.555Z,96527.14
2019-02-12T17:52:12.171Z,96527.97
2019-02-12T17:54:40.792Z,96538.98
2019-02-12T17:57:09.393Z,96532.35
2019-02-12T17:59:38.087Z,96526.23
2019-02-12T18:02:06.846Z,96523.92
2019-02-12T18:04:35.638Z,96523.86
2019-02-12T18:07:04.216Z,96530.23
2019-02-12T18:09:32.854Z,96529.69
2019-02-12T18:12:01.461Z,96532.17
2019-02-12T18:14:30.135Z,96531.18
2019-02-12T18:16:58.792Z,96526.34
2019-02-12T18:19:27.459Z,96522.73
2019-02-12T18:21:56.375Z,96520.84
2019-02-12T18:24:24.967Z,96519.36
2019-02-12T18:26:53.650Z,96521.67
2019-02-12T18:29:23.261Z,96510.90
2019-02-12T18:31:51.855Z,96520.78
2019-02-12T18:34:20.460Z,96516.20
2019-02-12T18:36:49.114Z,96517.50
2019-02-12T18:39:17.711Z,96513.43
2019-02-12T18:41:46.299Z,96517.20
2019-02-12T18:44:14.905Z,96514.17
2019-02-12T18:46:43.518Z,96508.64
2019-02-12T18:49:12.130Z,96505.75
2019-02-12T18:51:40.741Z,96502.72
2019-02-12T18:54:09.402Z,96506.43
2019-02-12T18:56:41.731Z,96507.29
2019-02-12T18:59:08.340Z,96501.42
2019-02-12T19:01:36.962Z,96514.14
2019-02-12T19:04:05.540Z,96502.39
2019-02-12T19:06:34.164Z,96503.38
2019-02-12T19:09:03.088Z,96500.89
2019-02-12T19:11:32.038Z,96499.93
2019-02-12T19:14:00.628Z,96496.69
2019-02-12T19:16:29.269Z,96501.56
2019-02-12T19:18:57.849Z,96492.19
2019-02-12T19:21:26.729Z,96490.74
2019-02-12T19:23:55.452Z,96495.37
2019-02-12T19:26:24.065Z,96496.53
2019-02-12T19:28:52.654Z,96498.56
2019-02-12T19:31:23.069Z,96501.00
2019-02-12T19:33:51.656Z,96506.51
2019-02-12T19:36:20.267Z,96503.91
2019-02-12T19:38:49.728Z,96493.03
2019-02-12T19:41:19.897Z,96498.24
2019-02-12T19:43:48.497Z,96496.04
2019-02-12T19:46:17.112Z,96498.98
2019-02-12T19:48:45.712Z,96501.00
2019-02-12T19:51:15.426Z,96492.57
2019-02-12T19:53:44.027Z,96498.27
2019-02-12T19:56:12.685Z,96501.77
2019-02-12T19:58:41.290Z,96504.51
2019-02-12T20:01:10.311Z,96502.68
2019-02-12T20:03:38.990Z,96503.52
2019-02-12T20:06:07.853Z,96506.19
2019-02-12T20:08:36.630Z,96511.09
2019-02-12T20:11:05.802Z,96513.49
2019-02-12T20:13:34.404Z,96515.86
2019-02-12T20:16:03.121Z,96525.58
2019-02-12T20:18:31.696Z,96525.28
2019-02-12T20:21:00.520Z,96530.94
2019-02-12T20:23:29.187Z,96527.19
2019-02-12T20:25:57.793Z,96534.95
2019-02-12T20:28:26.408Z,96535.60
2019-02-12T20:30:55.062Z,96535.67
2019-02-12T20:33:23.762Z,96531.16
2019-02-12T20:35:52.503Z,96532.85
2019-02-12T20:38:22.034Z,96531.67
2019-02-12T20:40:50.646Z,96519.24
2019-02-12T20:43:19.254Z,96517.75
2019-02-12T20:45:47.932Z,96511.03
2019-02-12T20:48:16.640Z,96516.44
2019-02-12T20:50:45.241Z,96525.77
2019-02-12T20:53:13.941Z,96535.84
2019-02-12T20:55:42.642Z,96552.72
2019-02-12T20:58:11.278Z,96540.89
2019-02-12T21:00:39.874Z,96548.28
2019-02-12T21:03:08.485Z,96545.98
2019-02-12T21:05:37.148Z,96538.33
2019-02-12T21:08:05.780Z,96534.98
2019-02-12T21:10:34.425Z,96536.38
2019-02-12T21:13:03.049Z,96527.21
2019-02-12T21:15:31.779Z,96524.95
2019-02-12T21:18:00.405Z,96523.66
2019-02-12T21:20:29.047Z,96519.25
2019-02-12T21:22:57.656Z,96525.31
2019-02-12T21:25:26.280Z,96524.02
2019-02-12T21:27:55.116Z,96523.75
2019-02-12T21:30:23.832Z,96528.15
2019-02-12T21:32:52.455Z,96520.67
2019-02-12T21:35:21.318Z,96510.28
2019-02-12T21:37:50.010Z,96508.20
2019-02-12T21:40:20.064Z,96490.27
2019-02-12T21:42:49.484Z,96496.12
2019-02-12T21:45:18.072Z,96486.21
2019-02-12T21:47:46.715Z,96498.88
2019-02-12T21:50:15.330Z,96494.02
2019-02-12T21:52:43.978Z,96508.43
2019-02-12T21:55:12.697Z,96500.67
2019-02-12T21:57:41.419Z,96501.54
2019-02-12T22:00:12.144Z,96504.54
2019-02-12T22:02:40.732Z,96512.08
2019-02-12T22:05:10.168Z,96519.09
2019-02-12T22:07:38.783Z,96528.17
2019-02-12T22:10:09.841Z,96542.84
2019-02-12T22:12:38.464Z,96550.36
2019-02-12T22:15:10.461Z,96552.81
2019-02-12T22:17:39.225Z,96550.59
2019-02-12T22:20:08.949Z,96554.97
2019-02-12T22:22:37.581Z,96558.61
2019-02-12T22:25:06.601Z,96552.31
2019-02-12T22:27:40.452Z,96549.82
2019-02-12T22:30:08.965Z,96556.11
2019-02-12T22:32:37.601Z,96561.36
2019-02-12T22:35:06.450Z,96568.56
2019-02-12T22:37:35.070Z,96570.64
2019-02-12T22:40:03.749Z,96577.39
2019-02-12T22:42:32.355Z,96578.00
2019-02-12T22:45:00.977Z,96581.84
2019-02-12T22:47:29.623Z,96576.85
2019-02-12T22:49:58.216Z,96573.98
2019-02-12T22:52:26.807Z,96577.28
2019-02-12T22:54:55.441Z,96579.12
2019-02-12T22:57:24.101Z,96566.10
2019-02-12T22:59:52.688Z,96571.86
2019-02-12T23:02:21.325Z,96565.49
2019-02-12T23:04:49.910Z,96563.48
2019-02-12T23:07:18.525Z,96568.05
2019-02-12T23:09:47.125Z,96564.64
2019-02-12T23:12:15.935Z,96569.02
2019-02-12T23:14:44.533Z,96563.69
2019-02-12T23:17:13.130Z,96574.69
2019-02-12T23:19:41.746Z,96574.86
2019-02-12T23:22:10.352Z,96582.73
2019-02-12T23:24:38.965Z,96588.16
2019-02-12T23:27:07.556Z,96584.89
2019-02-12T23:29:36.176Z,96594.30
2019-02-12T23:32:05.036Z,96585.82
2019-02-12T23:34:33.641Z,96588.30
2019-02-12T23:37:02.282Z,96585.69
2019-02-12T23:39:30.897Z,96590.78
2019-02-12T23:41:59.494Z,96593.20
2019-02-12T23:44:28.126Z,96592.76
2019-02-12T23:46:56.716Z,96596.90
2019-02-12T23:49:25.324Z,96590.86
2019-02-12T23:51:53.956Z,96596.94
2019-02-12T23:54:22.587Z,96600.98
2019-02-12T23:56:51.186Z,96600.19
2019-02-12T23:59:19.798Z,96594.98
